AirNav   Bose Proflight Series 2 Wireless Aviation Headset
 
 1408 users online  

0CL9 SCE San Jacinto Valley Service Center Heliport
Romoland, California, USA

GOING TO ROMOLAND?


FAA INFORMATION EFFECTIVE 07 NOVEMBER 2019

Location

FAA Identifier: 0CL9
Lat/Long: 33-44-27.7600N 117-09-30.8000W
33-44.462667N 117-09.513333W
33.7410444,-117.1585556
(estimated)
Elevation: 1482 ft. / 452 m (estimated)
Variation: 14E (1985)
From city: 1 mile NW of ROMOLAND, CA
Time zone: UTC -8 (UTC -7 during Daylight Saving Time)
Zip code: 92548

Heliport Operations

Heliport use: Private use. Permission required prior to landing
Activation date: 10/1987
Control tower: no
ARTCC: LOS ANGELES CENTER
FSS: RIVERSIDE FLIGHT SERVICE STATION
Attendance: UNATNDD
Wind indicator: yes
Segmented circle: no

Heliport Communications

WX AWOS-3 at HMT (7 nm E): 118.375 (951-925-6886)
WX AWOS-3 at F70 (10 nm S): 119.025 (951-696-1018)
WX AWOS-3 at BNG (19 nm NE): 134.625 (951-922-4674)
WX ASOS at RAL (19 nm NW): 128.8 (951-352-4392)

Nearby radio navigation aids

VOR radial/distance  VOR name  Freq  Var
HDFr134/(2.5)HOMELAND VOR113.4014E
RALr118/(19.4)RIVERSIDE VOR112.4014E
PDZr105/21.4PARADISE VORTAC112.2015E
ELBr068/28.8EL TORO VOR/DME117.2014E
OCNr008/32.7OCEANSIDE VORTAC115.3015E
PSPr245/37.1PALM SPRINGS VORTAC115.5013E
POMr108/37.3POMONA VORTAC110.4015E

Heliport Services

Runway Information

Helipad H1

Dimensions: 20 x 20 ft. / 6 x 6 m
Surface: concrete
Latitude: 33-44.462667N
Longitude: 117-09.051333W
Elevation: 1482.0 ft.
Traffic pattern: leftleft

Heliport Ownership and Management from official FAA records

Ownership: Privately-owned
Owner: SOUTHERN CALIFORNIA EDISON CO
26100 MENIFEE ROAD
ROMOLAND, CA 92380
Phone 909-943-8266
Manager: DAVE GUERRERO C/O SCE AIR OPS
2161 EAST AVION ST
ONTARIO, CA 91761
Phone 909-974-4691

Additional Remarks

FOR CD CTC LOS ANGELES ARTCC AT 661-575-2079.

Instrument Procedures

There are no published instrument procedures at 0CL9.

Some nearby airports with instrument procedures:

KHMT - Hemet-Ryan Airport (7 nm E)
KRIV - March Air Reserve Base (10 nm NW)
F70 - French Valley Airport (10 nm S)
KRAL - Riverside Municipal Airport (19 nm NW)
KRIR - Flabob Airport (19 nm NW)
 
Loc | Ops | Rwys | IFR | FBO | Links
Com | Nav | Svcs | Stats | Notes

San Bernardino International Airport Authority
 
Area around 0CL9 (SCE San Jacinto Valley Service Center Heliport)
 
Road maps at: MapQuest Bing Google
 
Aerial photo
No photo
 
Sectional chart

 
Airport distance calculator
Flying to SCE San Jacinto Valley Service Center Heliport? Find the distance to fly.

From to 0CL9

Sunrise and sunset
Times for 18-Nov-2019
 Local
(UTC-8)
 Zulu
(UTC)
Morning civil twilight05:5813:58
Sunrise06:2514:25
Sunset16:4300:43
Evening civil twilight17:1001:10

Current date and time
Zulu (UTC)  18-Nov-2019 17:45:11
Local (UTC-8)  18-Nov-2019 09:45:11
 
METAR
KRIV 
9nm NW 
181658Z AUTO 00000KT 10SM CLR 20/M06 A2998 RMK AO2 SLP146 T02011057
KF70 
10nm S 
181735Z AUTO 01003KT 10SM CLR 23/M08 A2998 RMK AO1
KRAL 
19nm NW 
181653Z 10003KT 10SM CLR 20/M02 A2997 RMK AO2 SLP133 T02001022
TAF
KRIV 
9nm NW 
181218Z 1812/1918 VRB04KT 9999 SKC QNH2989INS BECMG 1820/1821 31009KT 9999 SKC QNH2985INS BECMG 1903/1904 VRB05KT 9999 SCT150 BKN250 QNH2979INS TX31/1822Z TN04/1813Z
NOTAMs
Click for the latest NOTAMs
NOTAMs are issued by the DoD/FAA and will open in a separate window not controlled by AirNav.

 

 
 

Would you like to see your business listed on this page?

 If your business provides an interesting product or service to pilots, flight crews, aircraft, or users of the SCE San Jacinto Valley Service Center Heliport, you should consider listing it here.  To start the listing process, click on the button below
 
Add a business
 

Other Pages about SCE San Jacinto Valley Service Center Heliport

Update a link
 
Copyright © AirNav, LLC. All rights reserved. Privacy Policy  Contact